Observation data for Tatum on 11/19/2019      Previous  Date       Current Mesonet Observations  Soil Data  Daily Summary Page  Observations in Plain Language
KTAT 190600Z 26005KT 04/M01 A3001 RMK A01 T00401012  RH  069%=      5-min Rain = 0
KTAT 190605Z 26005KT 04/M01 A3001 RMK A01 T00391012  RH  070%=      5-min Rain = 0
KTAT 190610Z 27006KT 04/M01 A3002 RMK A01 T00371012  RH  071%=      5-min Rain = 0
KTAT 190615Z 28006KT 04/M01 A3002 RMK A01 T00351012  RH  072%=      5-min Rain = 0
KTAT 190620Z 28006KT 03/M01 A3002 RMK A01 T00341011  RH  073%=      5-min Rain = 0
KTAT 190625Z 27005KT 03/M01 A3002 RMK A01 T00341012  RH  073%=      5-min Rain = 0
KTAT 190630Z 27004KT 03/M01 A3002 RMK A01 T00321011  RH  074%=      5-min Rain = 0
KTAT 190635Z 27004KT 03/M01 A3002 RMK A01 T00311011  RH  075%=      5-min Rain = 0
KTAT 190640Z 27002KT 03/M01 A3002 RMK A01 T00311010  RH  075%=      5-min Rain = 0
KTAT 190645Z 26001KT 03/M01 A3001 RMK A01 T00321010  RH  075%=      5-min Rain = 0
KTAT 190650Z 27002KT 03/M01 A3001 RMK A01 T00321010  RH  074%=      5-min Rain = 0
KTAT 190655Z 28003KT 03/M01 A3001 RMK A01 T00321011  RH  074%=      5-min Rain = 0
KTAT 190700Z 27002KT 03/M01 A3002 RMK A01 T00311011  RH  075%=      5-min Rain = 0
KTAT 190705Z 26001KT 03/M01 A3001 RMK A01 T00311011  RH  075%=      5-min Rain = 0
KTAT 190710Z 28002KT 03/M01 A3002 RMK A01 T00331011  RH  074%=      5-min Rain = 0
KTAT 190715Z 28004KT 03/M01 A3002 RMK A01 T00291012  RH  075%=      5-min Rain = 0
KTAT 190720Z 27004KT 03/M01 A3002 RMK A01 T00301011  RH  075%=      5-min Rain = 0
KTAT 190725Z 26004KT 03/M01 A3002 RMK A01 T00301012  RH  075%=      5-min Rain = 0
KTAT 190730Z 25004KT 03/M01 A3002 RMK A01 T00291012  RH  075%=      5-min Rain = 0
KTAT 190735Z 25004KT 03/M01 A3002 RMK A01 T00291013  RH  075%=      5-min Rain = 0
KTAT 190740Z 24004KT 03/M01 A3002 RMK A01 T00301012  RH  074%=      5-min Rain = 0
KTAT 190745Z 25004KT 03/M01 A3002 RMK A01 T00321012  RH  073%=      5-min Rain = 0
KTAT 190750Z 25004KT 03/M01 A3002 RMK A01 T00321013  RH  073%=      5-min Rain = 0
KTAT 190755Z 25004KT 03/M01 A3002 RMK A01 T00291014  RH  074%=      5-min Rain = 0
KTAT 190800Z 25005KT 03/M01 A3002 RMK A01 T00261014  RH  076%=      5-min Rain = 0
KTAT 190805Z 26005KT 03/M01 A3002 RMK A01 T00261014  RH  076%=      5-min Rain = 0
KTAT 190810Z 26005KT 03/M01 A3002 RMK A01 T00261013  RH  076%=      5-min Rain = 0
KTAT 190815Z 27005KT 03/M01 A3002 RMK A01 T00261013  RH  076%=      5-min Rain = 0
KTAT 190820Z 28004KT 02/M01 A3002 RMK A01 T00241014  RH  077%=      5-min Rain = 0
KTAT 190825Z 28003KT 02/M01 A3002 RMK A01 T00241013  RH  077%=      5-min Rain = 0
KTAT 190830Z 28002KT 03/M01 A3001 RMK A01 T00261012  RH  076%=      5-min Rain = 0
KTAT 190835Z 28002KT 03/M01 A3001 RMK A01 T00271013  RH  076%=      5-min Rain = 0
KTAT 190840Z 27004KT 03/M01 A3001 RMK A01 T00261013  RH  076%=      5-min Rain = 0
KTAT 190845Z 27004KT 02/M01 A3001 RMK A01 T00231014  RH  077%=      5-min Rain = 0
KTAT 190850Z 28005KT 02/M01 A3001 RMK A01 T00221013  RH  078%=      5-min Rain = 0
KTAT 190855Z 28004KT 02/M01 A3001 RMK A01 T00231012  RH  078%=      5-min Rain = 0
KTAT 190900Z 28004KT 02/M01 A3001 RMK A01 T00221013  RH  078%=      5-min Rain = 0
KTAT 190905Z 27005KT 02/M01 A3001 RMK A01 T00211014  RH  078%=      5-min Rain = 0
KTAT 190910Z 27005KT 02/M01 A3001 RMK A01 T00201014  RH  079%=      5-min Rain = 0
KTAT 190915Z 26006KT 02/M01 A3001 RMK A01 T00211014  RH  079%=      5-min Rain = 0
KTAT 190920Z 26006KT 02/M02 A3001 RMK A01 T00201015  RH  079%=      5-min Rain = 0
KTAT 190925Z 26007KT 02/M02 A3001 RMK A01 T00181016  RH  079%=      5-min Rain = 0
KTAT 190930Z 26005KT 02/M02 A3001 RMK A01 T00191015  RH  079%=      5-min Rain = 0
KTAT 190935Z 26005KT 02/M02 A30 RMK A01 T00191015  RH  079%=      5-min Rain = 0
KTAT 190940Z 26005KT 02/M02 A30 RMK A01 T00191015  RH  079%=      5-min Rain = 0
KTAT 190945Z 26005KT 02/M02 A30 RMK A01 T00191015  RH  079%=      5-min Rain = 0
KTAT 190950Z 26006KT 02/M01 A30 RMK A01 T00191014  RH  079%=      5-min Rain = 0
KTAT 190955Z 27007KT 02/M01 A30 RMK A01 T00201014  RH  079%=      5-min Rain = 0
KTAT 191000Z 27006KT 02/M02 A30 RMK A01 T00201015  RH  078%=      5-min Rain = 0
KTAT 191005Z 27006KT 02/M02 A30 RMK A01 T00201015  RH  078%=      5-min Rain = 0
KTAT 191010Z 26006KT 02/M02 A30 RMK A01 T00181016  RH  079%=      5-min Rain = 0
KTAT 191015Z 26005KT 02/M02 A30 RMK A01 T00181016  RH  079%=      5-min Rain = 0
KTAT 191020Z 25004KT 02/M02 A2999 RMK A01 T00181016  RH  079%=      5-min Rain = 0
KTAT 191025Z 26004KT 02/M02 A2999 RMK A01 T00181016  RH  079%=      5-min Rain = 0
KTAT 191030Z 26005KT 02/M02 A2999 RMK A01 T00171017  RH  079%=      5-min Rain = 0
KTAT 191035Z 26005KT 02/M02 A2999 RMK A01 T00161017  RH  079%=      5-min Rain = 0
KTAT 191040Z 25005KT 02/M02 A2999 RMK A01 T00171016  RH  079%=      5-min Rain = 0
KTAT 191045Z 25005KT 02/M02 A2999 RMK A01 T00171016  RH  079%=      5-min Rain = 0
KTAT 191050Z 25005KT 02/M02 A2999 RMK A01 T00171016  RH  079%=      5-min Rain = 0
KTAT 191055Z 25005KT 02/M02 A2999 RMK A01 T00161017  RH  079%=      5-min Rain = 0
KTAT 191100Z 23004KT 02/M02 A2999 RMK A01 T00171017  RH  079%=      5-min Rain = 0
KTAT 191105Z 23004KT 02/M02 A2998 RMK A01 T00181017  RH  078%=      5-min Rain = 0
KTAT 191110Z 22004KT 02/M02 A2998 RMK A01 T00191017  RH  078%=      5-min Rain = 0
KTAT 191115Z 22004KT 02/M02 A2998 RMK A01 T00191017  RH  077%=      5-min Rain = 0
KTAT 191120Z 25004KT 02/M02 A2998 RMK A01 T00181017  RH  078%=      5-min Rain = 0
KTAT 191125Z 25004KT 02/M02 A2998 RMK A01 T00161020  RH  078%=      5-min Rain = 0
KTAT 191130Z 25005KT 02/M02 A2998 RMK A01 T00151018  RH  080%=      5-min Rain = 0
KTAT 191135Z 24005KT 02/M02 A2998 RMK A01 T00151018  RH  079%=      5-min Rain = 0
KTAT 191140Z 23005KT 02/M02 A2998 RMK A01 T00151018  RH  079%=      5-min Rain = 0
KTAT 191145Z 24005KT 02/M02 A2998 RMK A01 T00151019  RH  079%=      5-min Rain = 0
KTAT 191150Z 25006KT 01/M02 A2998 RMK A01 T00141019  RH  079%=      5-min Rain = 0
KTAT 191155Z 25007KT 01/M02 A2998 RMK A01 T00131019  RH  080%=      5-min Rain = 0
KTAT 191200Z 25007KT 02/M02 A2998 RMK A01 T00151017  RH  080%=      5-min Rain = 0
KTAT 191205Z 25007KT 02/M02 A2997 RMK A01 T00181017  RH  078%=      5-min Rain = 0
KTAT 191210Z 25007KT 02/M02 A2998 RMK A01 T00201016  RH  078%=      5-min Rain = 0
KTAT 191215Z 25006KT 02/M02 A2998 RMK A01 T00221017  RH  076%=      5-min Rain = 0
KTAT 191220Z 24005KT 02/M02 A2997 RMK A01 T00191018  RH  077%=      5-min Rain = 0
KTAT 191225Z 24005KT 02/M02 A2997 RMK A01 T00191017  RH  078%=      5-min Rain = 0
KTAT 191230Z 24004KT 02/M02 A2997 RMK A01 T00191018  RH  077%=      5-min Rain = 0
KTAT 191235Z 24004KT 02/M02 A2997 RMK A01 T00181018  RH  077%=      5-min Rain = 0
KTAT 191240Z 24004KT 02/M02 A2997 RMK A01 T00181019  RH  077%=      5-min Rain = 0
KTAT 191245Z 25004KT 02/M02 A2997 RMK A01 T00161020  RH  078%=      5-min Rain = 0
KTAT 191250Z 26004KT 01/M02 A2998 RMK A01 T00131020  RH  079%=      5-min Rain = 0
KTAT 191255Z 26004KT 01/M02 A2998 RMK A01 T00111020  RH  080%=      5-min Rain = 0
KTAT 191300Z 26004KT 01/M02 A2998 RMK A01 T00101020  RH  081%=      5-min Rain = 0
KTAT 191305Z 25004KT 01/M02 A2998 RMK A01 T00101020  RH  081%=      5-min Rain = 0
KTAT 191310Z 26004KT 01/M02 A2998 RMK A01 T00091021  RH  081%=      5-min Rain = 0
KTAT 191315Z 27005KT 01/M02 A2998 RMK A01 T00071022  RH  082%=      5-min Rain = 0
KTAT 191320Z 26005KT 01/M02 A2998 RMK A01 T00061021  RH  083%=      5-min Rain = 0
KTAT 191325Z 25005KT 01/M02 A2998 RMK A01 T00071021  RH  083%=      5-min Rain = 0
KTAT 191330Z 25004KT 01/M02 A2998 RMK A01 T00081020  RH  082%=      5-min Rain = 0
KTAT 191335Z 27005KT 01/M02 A2998 RMK A01 T00091020  RH  081%=      5-min Rain = 0
KTAT 191340Z 27005KT 01/M02 A2998 RMK A01 T00101020  RH  081%=      5-min Rain = 0
KTAT 191345Z 26005KT 01/M02 A2998 RMK A01 T00111019  RH  081%=      5-min Rain = 0
KTAT 191350Z 27005KT 01/M02 A2998 RMK A01 T00141015  RH  082%=      5-min Rain = 0
KTAT 191355Z 26005KT 02/M01 A2998 RMK A01 T00201011  RH  080%=      5-min Rain = 0
KTAT 191400Z 25004KT 03/M01 A2998 RMK A01 T00281009  RH  078%=      5-min Rain = 0
KTAT 191405Z 25005KT 03/M01 A2998 RMK A01 T00331007  RH  076%=      5-min Rain = 0
KTAT 191410Z 25004KT 04/M00 A2998 RMK A01 T00381004  RH  075%=      5-min Rain = 0
KTAT 191415Z 24004KT 05/M00 A2998 RMK A01 T00451002  RH  073%=      5-min Rain = 0
KTAT 191420Z 25004KT 05/00 A2998 RMK A01 T00520001  RH  071%=      5-min Rain = 0
KTAT 191425Z 25003KT 06/01 A2999 RMK A01 T00600005  RH  069%=      5-min Rain = 0
KTAT 191430Z 24003KT 07/01 A2999 RMK A01 T00690007  RH  065%=      5-min Rain = 0
KTAT 191435Z 24003KT 08/01 A2999 RMK A01 T00780006  RH  061%=      5-min Rain = 0
KTAT 191440Z 22002KT 09/01 A2999 RMK A01 T00860007  RH  058%=      5-min Rain = 0
KTAT 191445Z 22002KT 10/01 A2999 RMK A01 T00950005  RH  054%=      5-min Rain = 0
KTAT 191450Z 22002KT 10/01 A2999 RMK A01 T01030005  RH  051%=      5-min Rain = 0
KTAT 191455Z 21003KT 11/01 A2999 RMK A01 T01080005  RH  049%=      5-min Rain = 0
KTAT 191500Z 21004KT 11/00 A2999 RMK A01 T01130003  RH  047%=      5-min Rain = 0
KTAT 191505Z 21004KT 12/00 A2999 RMK A01 T011700-0  RH  045%=      5-min Rain = 0
KTAT 191510Z 22004KT 12/M00 A2999 RMK A01 T01221003  RH  043%=      5-min Rain = 0
KTAT 191515Z 20004KT 13/M00 A2999 RMK A01 T01271003  RH  041%=      5-min Rain = 0
KTAT 191520Z 19004KT 13/M00 A2999 RMK A01 T01341003  RH  039%=      5-min Rain = 0
KTAT 191525Z 19006KT 14/M01 A2999 RMK A01 T01411005  RH  037%=      5-min Rain = 0
KTAT 191530Z 19008KT 15/M01 A2999 RMK A01 T01481008  RH  035%=      5-min Rain = 0
KTAT 191535Z 18008KT 15/M01 A30 RMK A01 T01541008  RH  033%=      5-min Rain = 0
KTAT 191540Z 18009KT 16/M01 A30 RMK A01 T01591008  RH  032%=      5-min Rain = 0
KTAT 191545Z 18008KT 17/M01 A30 RMK A01 T01661006  RH  031%=      5-min Rain = 0
KTAT 191550Z 18008KT 17/M01 A30 RMK A01 T01711008  RH  030%=      5-min Rain = 0
KTAT 191555Z 18010KT 18/M01 A30 RMK A01 T01761009  RH  029%=      5-min Rain = 0
KTAT 191600Z 18010KT 18/M01 A30 RMK A01 T01761012  RH  028%=      5-min Rain = 0
KTAT 191605Z 18009KT 18/M01 A30 RMK A01 T01781013  RH  028%=      5-min Rain = 0
KTAT 191610Z 18009KT 18/M01 A30 RMK A01 T01821014  RH  027%=      5-min Rain = 0
KTAT 191615Z 18009KT 19/M01 A2999 RMK A01 T01861014  RH  026%=      5-min Rain = 0
KTAT 191620Z 18010KT 19/M02 A2999 RMK A01 T01891015  RH  025%=      5-min Rain = 0
KTAT 191625Z 18010KT 19/M01 A2999 RMK A01 T01911014  RH  025%=      5-min Rain = 0
KTAT 191630Z 19010KT 20/M02 A2999 RMK A01 T01951015  RH  025%=      5-min Rain = 0
KTAT 191635Z 18011KT 20/M02 A2999 RMK A01 T01961015  RH  024%=      5-min Rain = 0
KTAT 191640Z 19011KT 20/M01 A2999 RMK A01 T01981014  RH  024%=      5-min Rain = 0
KTAT 191645Z 19013KT 20/M02 A2999 RMK A01 T02011015  RH  023%=      5-min Rain = 0
KTAT 191650Z 19012KT 20/M02 A2999 RMK A01 T02021016  RH  023%=      5-min Rain = 0
KTAT 191655Z 18014KT 21/M02 A2999 RMK A01 T02061017  RH  022%=      5-min Rain = 0
KTAT 191700Z 19014KT 21/M02 A2999 RMK A01 T02091019  RH  022%=      5-min Rain = 0
KTAT 191705Z 18014KT 21/M02 A2998 RMK A01 T02131020  RH  021%=      5-min Rain = 0
KTAT 191710Z 19014G19KT 22/M02 A2998 RMK A01 T02161023  RH  020%=      5-min Rain = 0
KTAT 191715Z 18015KT 22/M02 A2998 RMK A01 T02161022  RH  020%=      5-min Rain = 0
KTAT 191720Z 18013KT 22/M02 A2998 RMK A01 T02171020  RH  020%=      5-min Rain = 0
KTAT 191725Z 18013KT 22/M02 A2997 RMK A01 T02201019  RH  020%=      5-min Rain = 0
KTAT 191730Z 18012KT 22/M02 A2997 RMK A01 T02221019  RH  020%=      5-min Rain = 0
KTAT 191735Z 18014KT 22/M02 A2997 RMK A01 T02221019  RH  020%=      5-min Rain = 0
KTAT 191740Z 19013G18KT 22/M02 A2997 RMK A01 T02231020  RH  020%=      5-min Rain = 0
KTAT 191745Z 18014KT 22/M03 A2996 RMK A01 T02221026  RH  019%=      5-min Rain = 0
KTAT 191750Z 18015KT 22/M03 A2996 RMK A01 T02241027  RH  019%=      5-min Rain = 0
KTAT 191755Z 19014KT 22/M03 A2996 RMK A01 T02241029  RH  018%=      5-min Rain = 0
KTAT 191800Z 19014KT 23/M03 A2996 RMK A01 T02261032  RH  018%=      5-min Rain = 0
KTAT 191805Z 19014G20KT 23/M04 A2996 RMK A01 T02281036  RH  017%=      5-min Rain = 0
KTAT 191810Z 20014KT 23/M04 A2995 RMK A01 T02291038  RH  017%=      5-min Rain = 0
KTAT 191815Z 20015G20KT 23/M04 A2995 RMK A01 T02291042  RH  016%=      5-min Rain = 0
KTAT 191820Z 20014KT 23/M04 A2994 RMK A01 T02321041  RH  016%=      5-min Rain = 0
KTAT 191825Z 20012G19KT 23/M04 A2994 RMK A01 T02341041  RH  016%=      5-min Rain = 0
KTAT 191830Z 20015G20KT 24/M04 A2994 RMK A01 T02351044  RH  015%=      5-min Rain = 0
KTAT 191835Z 21014KT 24/M04 A2993 RMK A01 T02351043  RH  015%=      5-min Rain = 0
KTAT 191840Z 20014G19KT 24/M04 A2993 RMK A01 T02371044  RH  015%=      5-min Rain = 0
KTAT 191845Z 21013KT 24/M05 A2992 RMK A01 T02391045  RH  015%=      5-min Rain = 0
KTAT 191850Z 20013KT 24/M04 A2992 RMK A01 T02421044  RH  015%=      5-min Rain = 0
KTAT 191855Z 20013KT 25/M04 A2992 RMK A01 T02451043  RH  015%=      5-min Rain = 0
KTAT 191900Z 21014KT 25/M05 A2991 RMK A01 T02471046  RH  014%=      5-min Rain = 0
KTAT 191905Z 21014KT 25/M05 A2991 RMK A01 T02491048  RH  014%=      5-min Rain = 0
KTAT 191910Z 21014G19KT 25/M05 A2991 RMK A01 T02461050  RH  014%=      5-min Rain = 0
KTAT 191915Z 23014KT 24/M05 A299 RMK A01 T02441053  RH  014%=      5-min Rain = 0
KTAT 191920Z 21014G20KT 25/M05 A299 RMK A01 T02491049  RH  014%=      5-min Rain = 0
KTAT 191925Z 22012G19KT 25/M05 A299 RMK A01 T02511051  RH  013%=      5-min Rain = 0
KTAT 191930Z 23013KT 25/M05 A2989 RMK A01 T02541052  RH  013%=      5-min Rain = 0
KTAT 191935Z 22013KT 25/M05 A2989 RMK A01 T02511053  RH  013%=      5-min Rain = 0
KTAT 191940Z 21013G19KT 26/M05 A2989 RMK A01 T02551052  RH  013%=      5-min Rain = 0
KTAT 191945Z 21013KT 25/M05 A2988 RMK A01 T02521054  RH  013%=      5-min Rain = 0
KTAT 191950Z 21013KT 25/M05 A2988 RMK A01 T02521054  RH  013%=      5-min Rain = 0
KTAT 191955Z 22012G17KT 25/M05 A2988 RMK A01 T02531052  RH  013%=      5-min Rain = 0
KTAT 192000Z 22014KT 25/M06 A2988 RMK A01 T02501055  RH  013%=      5-min Rain = 0
KTAT 192005Z 21013KT 25/M06 A2988 RMK A01 T02461056  RH  013%=      5-min Rain = 0
KTAT 192010Z 22014KT 24/M06 A2988 RMK A01 T02371059  RH  013%=      5-min Rain = 0
KTAT 192015Z 24012KT 24/M06 A2987 RMK A01 T02411057  RH  013%=      5-min Rain = 0
KTAT 192020Z 23012KT 25/M06 A2987 RMK A01 T02501055  RH  013%=      5-min Rain = 0
KTAT 192025Z 22012G17KT 25/M05 A2987 RMK A01 T02541052  RH  013%=      5-min Rain = 0
KTAT 192030Z 23013KT 25/M05 A2987 RMK A01 T02521054  RH  013%=      5-min Rain = 0
KTAT 192035Z 21012KT 25/M05 A2987 RMK A01 T02531052  RH  013%=      5-min Rain = 0
KTAT 192040Z 22010KT 26/M05 A2987 RMK A01 T02561052  RH  013%=      5-min Rain = 0
KTAT 192045Z 22009KT 26/M05 A2986 RMK A01 T02551053  RH  013%=      5-min Rain = 0
KTAT 192050Z 20012KT 26/M05 A2986 RMK A01 T02581052  RH  013%=      5-min Rain = 0
KTAT 192055Z 21011KT 26/M05 A2986 RMK A01 T02561054  RH  013%=      5-min Rain = 0
KTAT 192100Z 22010KT 26/M05 A2986 RMK A01 T02551052  RH  013%=      5-min Rain = 0
KTAT 192105Z 21012G17KT 25/M05 A2985 RMK A01 T02531052  RH  013%=      5-min Rain = 0
KTAT 192110Z 21012G17KT 25/M05 A2985 RMK A01 T02471054  RH  013%=      5-min Rain = 0
KTAT 192115Z 22013KT 25/M05 A2985 RMK A01 T02471053  RH  013%=      5-min Rain = 0
KTAT 192120Z 21013KT 24/M05 A2985 RMK A01 T02421053  RH  014%=      5-min Rain = 0
KTAT 192125Z 21014G19KT 24/M05 A2985 RMK A01 T02411053  RH  014%=      5-min Rain = 0
KTAT 192130Z 21013KT 25/M05 A2985 RMK A01 T02491051  RH  013%=      5-min Rain = 0
KTAT 192135Z 22011KT 25/M05 A2985 RMK A01 T02461053  RH  013%=      5-min Rain = 0
KTAT 192140Z 22013KT 25/M05 A2985 RMK A01 T02511050  RH  013%=      5-min Rain = 0
KTAT 192145Z 21014KT 25/M05 A2985 RMK A01 T02521051  RH  013%=      5-min Rain = 0
KTAT 192150Z 23013G18KT 25/M05 A2985 RMK A01 T02501051  RH  013%=      5-min Rain = 0
KTAT 192155Z 22013G18KT 25/M05 A2985 RMK A01 T02501051  RH  013%=      5-min Rain = 0
KTAT 192200Z 22012KT 25/M05 A2985 RMK A01 T02471052  RH  013%=      5-min Rain = 0
KTAT 192205Z 21012KT 25/M05 A2985 RMK A01 T02451050  RH  014%=      5-min Rain = 0
KTAT 192210Z 22013KT 25/M05 A2985 RMK A01 T02461051  RH  014%=      5-min Rain = 0
KTAT 192215Z 22011KT 24/M05 A2984 RMK A01 T02411051  RH  014%=      5-min Rain = 0
KTAT 192220Z 22012KT 24/M05 A2984 RMK A01 T02361053  RH  014%=      5-min Rain = 0
KTAT 192225Z 21012KT 24/M05 A2984 RMK A01 T02361052  RH  014%=      5-min Rain = 0
KTAT 192230Z 21011KT 24/M05 A2984 RMK A01 T02391051  RH  014%=      5-min Rain = 0
KTAT 192235Z 20012KT 23/M05 A2984 RMK A01 T02331052  RH  015%=      5-min Rain = 0
KTAT 192240Z 20012KT 22/M06 A2984 RMK A01 T02241055  RH  015%=      5-min Rain = 0
KTAT 192245Z 20010KT 22/M05 A2984 RMK A01 T02171054  RH  016%=      5-min Rain = 0
KTAT 192250Z 20010KT 21/M05 A2985 RMK A01 T02131053  RH  016%=      5-min Rain = 0
KTAT 192255Z 20010KT 21/M05 A2985 RMK A01 T02101051  RH  017%=      5-min Rain = 0
KTAT 192300Z 20009KT 21/M04 A2985 RMK A01 T02051042  RH  019%=      5-min Rain = 0
KTAT 192305Z 21009KT 20/M04 A2985 RMK A01 T02021039  RH  019%=      5-min Rain = 0
KTAT 192310Z 22009KT 20/M04 A2985 RMK A01 T01991037  RH  020%=      5-min Rain = 0
KTAT 192315Z 22009KT 20/M04 A2985 RMK A01 T01971036  RH  020%=      5-min Rain = 0
KTAT 192320Z 21008KT 19/M04 A2985 RMK A01 T01931035  RH  021%=      5-min Rain = 0
KTAT 192325Z 21008KT 18/M03 A2985 RMK A01 T01841033  RH  023%=      5-min Rain = 0
KTAT 192330Z 21007KT 18/M03 A2984 RMK A01 T01761032  RH  024%=      5-min Rain = 0
KTAT 192335Z 21006KT 17/M03 A2984 RMK A01 T01711032  RH  025%=      5-min Rain = 0
KTAT 192340Z 19005KT 16/M03 A2984 RMK A01 T01631034  RH  026%=      5-min Rain = 0
KTAT 192345Z 18005KT 16/M03 A2984 RMK A01 T01551034  RH  027%=      5-min Rain = 0
KTAT 192350Z 19005KT 15/M03 A2984 RMK A01 T01541032  RH  028%=      5-min Rain = 0
KTAT 192355Z 19005KT 16/M03 A2984 RMK A01 T01551032  RH  028%=      5-min Rain = 0
KTAT 200000Z 19006KT 15/M03 A2984 RMK A01 T01541028  RH  029%=      5-min Rain = 0
KTAT 200005Z 19006KT 15/M03 A2984 RMK A01 T01491026  RH  030%=      5-min Rain = 0
KTAT 200010Z 18007KT 15/M03 A2984 RMK A01 T01451025  RH  031%=      5-min Rain = 0
KTAT 200015Z 18008KT 14/M02 A2984 RMK A01 T01431024  RH  032%=      5-min Rain = 0
KTAT 200020Z 18008KT 15/M02 A2985 RMK A01 T01451022  RH  032%=      5-min Rain = 0
KTAT 200025Z 18007KT 14/M02 A2985 RMK A01 T01441022  RH  032%=      5-min Rain = 0
KTAT 200030Z 18007KT 15/M02 A2985 RMK A01 T01451022  RH  032%=      5-min Rain = 0
KTAT 200035Z 18006KT 15/M02 A2985 RMK A01 T01451022  RH  032%=      5-min Rain = 0
KTAT 200040Z 19006KT 15/M02 A2985 RMK A01 T01451021  RH  032%=      5-min Rain = 0
KTAT 200045Z 19007KT 14/M02 A2985 RMK A01 T01431019  RH  033%=      5-min Rain = 0
KTAT 200050Z 18007KT 14/M02 A2985 RMK A01 T01391018  RH  034%=      5-min Rain = 0
KTAT 200055Z 19007KT 14/M02 A2986 RMK A01 T01391018  RH  034%=      5-min Rain = 0
KTAT 200100Z 19006KT 14/M02 A2986 RMK A01 T01401018  RH  034%=      5-min Rain = 0
KTAT 200105Z 19006KT 14/M02 A2986 RMK A01 T01411018  RH  034%=      5-min Rain = 0
KTAT 200110Z 19007KT 14/M02 A2986 RMK A01 T01401017  RH  034%=      5-min Rain = 0
KTAT 200115Z 18007KT 14/M02 A2986 RMK A01 T01401016  RH  034%=      5-min Rain = 0
KTAT 200120Z 17006KT 14/M02 A2986 RMK A01 T01371016  RH  035%=      5-min Rain = 0
KTAT 200125Z 18007KT 14/M02 A2985 RMK A01 T01351016  RH  035%=      5-min Rain = 0
KTAT 200130Z 18007KT 14/M02 A2985 RMK A01 T01361015  RH  035%=      5-min Rain = 0
KTAT 200135Z 18007KT 14/M02 A2985 RMK A01 T01381015  RH  035%=      5-min Rain = 0
KTAT 200140Z 18008KT 14/M02 A2985 RMK A01 T01411015  RH  034%=      5-min Rain = 0
KTAT 200145Z 18008KT 14/M02 A2985 RMK A01 T01431015  RH  034%=      5-min Rain = 0
KTAT 200150Z 18007KT 14/M01 A2985 RMK A01 T01441014  RH  034%=      5-min Rain = 0
KTAT 200155Z 18007KT 14/M01 A2985 RMK A01 T01421014  RH  034%=      5-min Rain = 0
KTAT 200200Z 18007KT 14/M01 A2985 RMK A01 T01391013  RH  035%=      5-min Rain = 0
KTAT 200205Z 18006KT 14/M01 A2985 RMK A01 T01361012  RH  036%=      5-min Rain = 0
KTAT 200210Z 19007KT 13/M01 A2985 RMK A01 T01331009  RH  038%=      5-min Rain = 0
KTAT 200215Z 19007KT 13/M01 A2985 RMK A01 T01301007  RH  039%=      5-min Rain = 0
KTAT 200220Z 19007KT 13/M01 A2985 RMK A01 T01281007  RH  040%=      5-min Rain = 0
KTAT 200225Z 19007KT 13/M01 A2985 RMK A01 T01271006  RH  040%=      5-min Rain = 0
KTAT 200230Z 19007KT 13/M01 A2985 RMK A01 T01271006  RH  040%=      5-min Rain = 0
KTAT 200235Z 19007KT 13/M01 A2985 RMK A01 T01271005  RH  041%=      5-min Rain = 0
KTAT 200240Z 21009KT 13/M01 A2985 RMK A01 T01301006  RH  040%=      5-min Rain = 0
KTAT 200245Z 20009KT 14/M01 A2986 RMK A01 T01411010  RH  036%=      5-min Rain = 0
KTAT 200250Z 20009KT 14/M01 A2986 RMK A01 T01421010  RH  036%=      5-min Rain = 0
KTAT 200255Z 20009KT 14/M01 A2986 RMK A01 T01391009  RH  036%=      5-min Rain = 0
KTAT 200300Z 19010KT 14/M01 A2986 RMK A01 T01401009  RH  036%=      5-min Rain = 0
KTAT 200305Z 20010KT 14/M01 A2986 RMK A01 T01431010  RH  035%=      5-min Rain = 0
KTAT 200310Z 20010KT 14/M01 A2986 RMK A01 T01441010  RH  035%=      5-min Rain = 0
KTAT 200315Z 19010KT 15/M01 A2985 RMK A01 T01491011  RH  034%=      5-min Rain = 0
KTAT 200320Z 19009KT 15/M01 A2985 RMK A01 T01461011  RH  034%=      5-min Rain = 0
KTAT 200325Z 19009KT 14/M01 A2985 RMK A01 T01421011  RH  035%=      5-min Rain = 0
KTAT 200330Z 19011KT 14/M01 A2985 RMK A01 T01411011  RH  035%=      5-min Rain = 0
KTAT 200335Z 19010KT 14/M01 A2985 RMK A01 T01401011  RH  036%=      5-min Rain = 0
KTAT 200340Z 19009KT 14/M01 A2985 RMK A01 T01381009  RH  037%=      5-min Rain = 0
KTAT 200345Z 20010KT 14/M01 A2985 RMK A01 T01371009  RH  037%=      5-min Rain = 0
KTAT 200350Z 20011KT 14/M01 A2986 RMK A01 T01391010  RH  036%=      5-min Rain = 0
KTAT 200355Z 20011KT 14/M01 A2986 RMK A01 T01401010  RH  036%=      5-min Rain = 0
KTAT 200400Z 19010KT 14/M01 A2986 RMK A01 T01401009  RH  036%=      5-min Rain = 0
KTAT 200405Z 19009KT 14/M01 A2986 RMK A01 T01391008  RH  037%=      5-min Rain = 0
KTAT 200410Z 18008KT 14/M01 A2986 RMK A01 T01371006  RH  038%=      5-min Rain = 0
KTAT 200415Z 16008KT 13/M01 A2986 RMK A01 T01331005  RH  039%=      5-min Rain = 0
KTAT 200420Z 18010KT 13/M00 A2986 RMK A01 T01281003  RH  041%=      5-min Rain = 0
KTAT 200425Z 18009KT 13/M00 A2986 RMK A01 T01291003  RH  041%=      5-min Rain = 0
KTAT 200430Z 17008KT 13/M00 A2987 RMK A01 T01291002  RH  041%=      5-min Rain = 0
KTAT 200435Z 18011G17KT 13/M00 A2987 RMK A01 T01271001  RH  042%=      5-min Rain = 0
KTAT 200440Z 18012G17KT 14/M01 A2987 RMK A01 T01351005  RH  038%=      5-min Rain = 0
KTAT 200445Z 19011KT 14/M01 A2987 RMK A01 T01391009  RH  036%=      5-min Rain = 0
KTAT 200450Z 19011KT 14/M01 A2987 RMK A01 T01401010  RH  036%=      5-min Rain = 0
KTAT 200455Z 19010KT 14/M01 A2987 RMK A01 T01401010  RH  036%=      5-min Rain = 0
KTAT 200500Z 20010KT 14/M01 A2987 RMK A01 T01411010  RH  036%=      5-min Rain = 0
KTAT 200505Z 19009KT 14/M01 A2987 RMK A01 T01401009  RH  036%=      5-min Rain = 0
KTAT 200510Z 20009KT 14/M01 A2987 RMK A01 T01391008  RH  037%=      5-min Rain = 0
KTAT 200515Z 20009KT 14/M01 A2987 RMK A01 T01391008  RH  037%=      5-min Rain = 0
KTAT 200520Z 20009KT 14/M01 A2987 RMK A01 T01401008  RH  036%=      5-min Rain = 0
KTAT 200525Z 20009KT 15/M01 A2987 RMK A01 T01471007  RH  035%=      5-min Rain = 0
KTAT 200530Z 18008KT 15/M01 A2987 RMK A01 T01451007  RH  036%=      5-min Rain = 0
KTAT 200535Z 18008KT 14/M00 A2987 RMK A01 T01391004  RH  038%=      5-min Rain = 0
KTAT 200540Z 18009KT 14/M00 A2987 RMK A01 T01371002  RH  039%=      5-min Rain = 0
KTAT 200545Z 17010KT 14/M00 A2987 RMK A01 T01371001  RH  039%=      5-min Rain = 0
KTAT 200550Z 17012KT 14/M00 A2987 RMK A01 T01381001  RH  039%=      5-min Rain = 0
KTAT 200555Z 18011KT 14/M00 A2987 RMK A01 T01381001  RH  039%=      5-min Rain = 0

Page generated in 0.022 seconds.